createdAt,value
2022-12-04T00:00:35.352Z,4.76
2022-12-04T00:03:03.109Z,4.77
2022-12-04T00:05:30.472Z,4.58
2022-12-04T00:07:57.850Z,4.64
2022-12-04T00:10:25.520Z,4.56
2022-12-04T00:12:52.872Z,4.58
2022-12-04T00:15:27.517Z,4.63
2022-12-04T00:17:55.483Z,4.59
2022-12-04T00:20:23.355Z,4.67
2022-12-04T00:22:50.973Z,4.54
2022-12-04T00:25:19.144Z,4.71
2022-12-04T00:27:46.801Z,4.77
2022-12-04T00:30:14.369Z,4.79
2022-12-04T00:32:42.225Z,4.89
2022-12-04T00:35:10.179Z,4.87
2022-12-04T00:37:37.680Z,4.79
2022-12-04T00:40:06.382Z,4.70
2022-12-04T00:42:33.905Z,4.73
2022-12-04T00:45:01.332Z,4.74
2022-12-04T00:47:29.049Z,4.68
2022-12-04T00:49:56.765Z,4.68
2022-12-04T00:52:25.688Z,4.66
2022-12-04T00:54:53.533Z,4.67
2022-12-04T00:57:20.922Z,4.75
2022-12-04T00:59:48.396Z,4.73
2022-12-04T01:02:16.239Z,4.69
2022-12-04T01:04:43.681Z,4.73
2022-12-04T01:07:11.144Z,4.77
2022-12-04T01:09:38.911Z,4.67
2022-12-04T01:12:06.494Z,4.64
2022-12-04T01:14:33.929Z,4.63
2022-12-04T01:17:01.798Z,4.62
2022-12-04T01:19:29.267Z,4.59
2022-12-04T01:21:56.661Z,4.67
2022-12-04T01:24:24.406Z,4.67
2022-12-04T01:26:52.140Z,4.57
2022-12-04T01:29:19.680Z,4.58
2022-12-04T01:31:47.430Z,4.59
2022-12-04T01:34:14.843Z,4.68
2022-12-04T01:36:42.242Z,4.56
2022-12-04T01:39:10.028Z,4.54
2022-12-04T01:41:37.385Z,4.51
2022-12-04T01:44:12.844Z,4.60
2022-12-04T01:46:41.958Z,4.60
2022-12-04T01:49:14.984Z,4.62
2022-12-04T01:51:48.198Z,4.67
2022-12-04T01:54:21.312Z,4.67
2022-12-04T01:56:58.495Z,4.65
2022-12-04T01:59:31.227Z,4.59
2022-12-04T02:02:22.659Z,4.63
2022-12-04T02:04:50.991Z,4.59
2022-12-04T02:07:18.296Z,4.62
2022-12-04T02:09:46.360Z,4.56
2022-12-04T02:12:23.689Z,4.41
2022-12-04T02:15:07.064Z,4.44
2022-12-04T02:17:50.149Z,4.33
2022-12-04T02:20:22.245Z,4.48
2022-12-04T02:23:11.801Z,4.54
2022-12-04T02:25:55.315Z,4.46
2022-12-04T02:28:28.835Z,4.48
2022-12-04T02:31:00.255Z,4.54
2022-12-04T02:33:50.884Z,4.54
2022-12-04T02:36:24.739Z,4.48
2022-12-04T02:38:59.471Z,4.53
2022-12-04T02:42:07.188Z,4.49
2022-12-04T02:44:44.096Z,4.43
2022-12-04T02:47:19.995Z,4.46
2022-12-04T02:49:54.347Z,4.52
2022-12-04T02:52:29.593Z,4.38
2022-12-04T02:55:08.017Z,4.44
2022-12-04T02:57:41.214Z,4.49
2022-12-04T03:00:10.172Z,4.51
2022-12-04T03:02:58.085Z,4.55
2022-12-04T03:05:39.928Z,4.39
2022-12-04T03:08:19.757Z,4.48
2022-12-04T03:10:55.389Z,4.44
2022-12-04T03:13:31.533Z,4.52
2022-12-04T03:16:10.048Z,4.50
2022-12-04T03:18:56.196Z,4.49
2022-12-04T03:21:29.976Z,4.41
2022-12-04T03:24:12.919Z,4.38
2022-12-04T03:27:15.244Z,4.40
2022-12-04T03:29:58.342Z,4.45
2022-12-04T03:32:32.211Z,4.59
2022-12-04T03:35:04.351Z,4.56
2022-12-04T03:37:43.716Z,4.60
2022-12-04T03:40:22.353Z,4.47
2022-12-04T03:43:00.259Z,4.47
2022-12-04T03:45:34.604Z,4.44
2022-12-04T03:48:11.656Z,4.33
2022-12-04T03:50:47.362Z,4.43
2022-12-04T03:53:29.806Z,4.42
2022-12-04T03:56:07.626Z,4.51
2022-12-04T03:58:39.806Z,4.57
2022-12-04T04:01:12.457Z,4.47
2022-12-04T04:03:54.761Z,4.55
2022-12-04T04:06:33.919Z,4.44
2022-12-04T04:09:07.952Z,4.46
2022-12-04T04:11:47.181Z,4.49
2022-12-04T04:14:40.480Z,4.52
2022-12-04T04:17:37.947Z,4.51
2022-12-04T04:20:30.869Z,4.39
2022-12-04T04:23:21.488Z,4.44
2022-12-04T04:25:51.905Z,4.52
2022-12-04T04:28:40.329Z,4.44
2022-12-04T04:31:21.607Z,4.39
2022-12-04T04:34:23.455Z,4.36
2022-12-04T04:37:10.153Z,4.44
2022-12-04T04:39:45.694Z,4.40
2022-12-04T04:42:28.147Z,4.31
2022-12-04T04:45:06.222Z,4.39
2022-12-04T04:48:17.170Z,4.46
2022-12-04T04:50:45.874Z,4.43
2022-12-04T04:53:18.148Z,4.41
2022-12-04T04:55:46.205Z,4.20
2022-12-04T04:58:17.670Z,4.34
2022-12-04T05:00:48.728Z,4.37
2022-12-04T05:03:16.480Z,4.26
2022-12-04T05:05:44.041Z,4.33
2022-12-04T05:08:11.485Z,4.35
2022-12-04T05:10:39.284Z,4.37
2022-12-04T05:13:06.668Z,4.31
2022-12-04T05:15:34.037Z,4.41
2022-12-04T05:18:01.768Z,4.39
2022-12-04T05:20:29.167Z,4.27
2022-12-04T05:22:56.603Z,4.34
2022-12-04T05:25:24.392Z,4.27
2022-12-04T05:27:51.885Z,4.48
2022-12-04T05:30:19.302Z,4.30
2022-12-04T05:32:46.980Z,4.30
2022-12-04T05:35:14.332Z,4.25
2022-12-04T05:37:42.942Z,4.32
2022-12-04T05:40:11.287Z,4.32
2022-12-04T05:42:39.776Z,4.32
2022-12-04T05:45:07.633Z,4.36
2022-12-04T05:47:40.145Z,4.34
2022-12-04T05:50:09.586Z,4.44
2022-12-04T05:52:37.324Z,4.38
2022-12-04T05:55:06.845Z,4.47
2022-12-04T05:57:34.106Z,4.45
2022-12-04T06:00:01.781Z,4.50
2022-12-04T06:02:38.495Z,4.41
2022-12-04T06:05:06.745Z,4.40
2022-12-04T06:07:34.150Z,4.43
2022-12-04T06:10:01.917Z,4.41
2022-12-04T06:12:30.626Z,4.32
2022-12-04T06:14:59.187Z,4.34
2022-12-04T06:17:26.513Z,4.35
2022-12-04T06:19:56.289Z,4.41
2022-12-04T06:22:25.229Z,4.39
2022-12-04T06:24:52.676Z,4.32
2022-12-04T06:27:28.710Z,4.41
2022-12-04T06:29:56.605Z,4.34
2022-12-04T06:32:24.927Z,4.31
2022-12-04T06:34:53.901Z,4.23
2022-12-04T06:37:23.504Z,4.21
2022-12-04T06:39:51.209Z,4.17
2022-12-04T06:42:18.558Z,4.20
2022-12-04T06:44:45.876Z,4.19
2022-12-04T06:47:13.507Z,4.22
2022-12-04T06:49:40.949Z,4.22
2022-12-04T06:52:08.297Z,4.28
2022-12-04T06:54:35.957Z,4.34
2022-12-04T06:57:03.257Z,4.39
2022-12-04T06:59:30.511Z,4.43
2022-12-04T07:01:58.603Z,4.48
2022-12-04T07:04:26.100Z,4.48
2022-12-04T07:06:53.609Z,4.47
2022-12-04T07:09:21.306Z,4.43
2022-12-04T07:11:48.877Z,4.47
2022-12-04T07:14:16.230Z,4.47
2022-12-04T07:16:44.115Z,4.44
2022-12-04T07:19:14.148Z,4.42
2022-12-04T07:21:42.691Z,4.30
2022-12-04T07:24:15.739Z,4.27
2022-12-04T07:26:43.510Z,4.32
2022-12-04T07:29:11.304Z,4.39
2022-12-04T07:31:38.785Z,4.37
2022-12-04T07:34:06.273Z,4.44
2022-12-04T07:36:33.941Z,4.49
2022-12-04T07:39:01.265Z,4.42
2022-12-04T07:41:28.692Z,4.50
2022-12-04T07:43:56.418Z,4.60
2022-12-04T07:46:26.843Z,4.66
2022-12-04T07:48:58.833Z,4.71
2022-12-04T07:51:28.980Z,4.67
2022-12-04T07:54:03.683Z,4.60
2022-12-04T07:56:33.771Z,4.42
2022-12-04T07:59:01.743Z,4.52
2022-12-04T08:01:29.101Z,4.54
2022-12-04T08:03:58.605Z,4.57
2022-12-04T08:06:27.059Z,4.60
2022-12-04T08:08:54.977Z,4.67
2022-12-04T08:11:25.050Z,4.73
2022-12-04T08:13:57.710Z,4.84
2022-12-04T08:16:26.328Z,4.92
2022-12-04T08:18:54.449Z,5.11
2022-12-04T08:21:23.966Z,4.90
2022-12-04T08:23:54.623Z,5.03
2022-12-04T08:26:24.123Z,5.10
2022-12-04T08:28:56.856Z,5.08
2022-12-04T08:31:26.719Z,5.15
2022-12-04T08:33:57.065Z,5.06
2022-12-04T08:36:25.093Z,5.24
2022-12-04T08:38:52.642Z,5.28
2022-12-04T08:41:24.203Z,5.22
2022-12-04T08:43:56.134Z,5.23
2022-12-04T08:46:26.474Z,5.14
2022-12-04T08:48:54.824Z,5.15
2022-12-04T08:51:28.686Z,5.29
2022-12-04T08:54:01.637Z,5.17
2022-12-04T08:56:30.223Z,5.22
2022-12-04T08:58:58.844Z,5.06
2022-12-04T09:01:27.274Z,5.10
2022-12-04T09:03:55.352Z,5.06
2022-12-04T09:06:24.170Z,4.90
2022-12-04T09:08:56.637Z,4.88
2022-12-04T09:11:27.755Z,4.90
2022-12-04T09:13:56.152Z,4.96
2022-12-04T09:16:25.475Z,4.92
2022-12-04T09:18:53.153Z,4.94
2022-12-04T09:21:22.772Z,4.98
2022-12-04T09:23:51.394Z,4.96
2022-12-04T09:26:21.719Z,5.08
2022-12-04T09:28:50.215Z,5.11
2022-12-04T09:31:19.060Z,5.07
2022-12-04T09:33:46.806Z,5.01
2022-12-04T09:36:16.502Z,4.91
2022-12-04T09:38:46.196Z,5.11
2022-12-04T09:41:32.420Z,4.96
2022-12-04T09:44:15.820Z,4.98
2022-12-04T09:46:59.147Z,4.91
2022-12-04T09:49:36.754Z,4.98
2022-12-04T09:52:20.298Z,4.96
2022-12-04T09:54:51.136Z,4.77
2022-12-04T09:57:44.379Z,4.80
2022-12-04T10:00:15.512Z,4.86
2022-12-04T10:02:49.618Z,4.72
2022-12-04T10:05:29.000Z,4.86
2022-12-04T10:08:29.333Z,4.79
2022-12-04T10:11:15.216Z,4.76
2022-12-04T10:14:04.121Z,4.87
2022-12-04T10:16:50.355Z,4.87
2022-12-04T10:19:30.349Z,4.68
2022-12-04T10:22:24.508Z,4.77
2022-12-04T10:24:56.489Z,4.87
2022-12-04T10:27:23.808Z,4.86
2022-12-04T10:29:58.489Z,4.90
2022-12-04T10:32:31.614Z,4.73
2022-12-04T10:35:09.133Z,4.94
2022-12-04T10:37:41.525Z,4.82
2022-12-04T10:40:23.461Z,4.87
2022-12-04T10:42:57.943Z,4.80
2022-12-04T10:45:25.524Z,4.68
2022-12-04T10:47:53.977Z,4.73
2022-12-04T10:50:24.283Z,4.85
2022-12-04T10:52:52.290Z,4.87
2022-12-04T10:55:34.875Z,4.84
2022-12-04T10:58:03.077Z,4.75
2022-12-04T11:00:35.701Z,4.77
2022-12-04T11:03:09.280Z,4.72
2022-12-04T11:05:55.709Z,4.76
2022-12-04T11:08:26.414Z,4.72
2022-12-04T11:11:01.602Z,4.73
2022-12-04T11:13:29.756Z,4.76
2022-12-04T11:15:58.766Z,4.76
2022-12-04T11:18:30.099Z,4.67
2022-12-04T11:21:15.572Z,4.72
2022-12-04T11:23:49.688Z,4.81
2022-12-04T11:26:30.298Z,4.79
2022-12-04T11:29:01.671Z,4.95
2022-12-04T11:31:31.493Z,4.59
2022-12-04T11:34:03.181Z,4.66
2022-12-04T11:36:34.489Z,4.76
2022-12-04T11:39:07.486Z,4.79
2022-12-04T11:41:35.274Z,4.70
2022-12-04T11:44:02.845Z,4.72
2022-12-04T11:46:34.289Z,4.80
2022-12-04T11:49:03.825Z,4.88
2022-12-04T11:51:39.898Z,4.82
2022-12-04T11:54:26.783Z,4.63
2022-12-04T11:57:07.199Z,4.57
2022-12-04T11:59:59.873Z,4.67
2022-12-04T12:02:55.146Z,4.59
2022-12-04T12:06:15.118Z,4.76
2022-12-04T12:08:56.387Z,4.66
2022-12-04T12:11:33.104Z,4.68
2022-12-04T12:14:14.637Z,4.65
2022-12-04T12:17:30.627Z,4.60
2022-12-04T12:20:27.917Z,4.51
2022-12-04T12:23:12.009Z,4.44
2022-12-04T12:25:39.443Z,4.49
2022-12-04T12:28:25.474Z,4.45
2022-12-04T12:31:18.458Z,4.35
2022-12-04T12:34:11.387Z,4.35
2022-12-04T12:36:47.643Z,4.51
2022-12-04T12:39:20.947Z,4.31
2022-12-04T12:41:59.273Z,4.34
2022-12-04T12:44:45.302Z,4.38
2022-12-04T12:47:20.101Z,4.43
2022-12-04T12:50:06.982Z,4.49
2022-12-04T12:53:09.847Z,4.42
2022-12-04T12:55:44.804Z,4.48
2022-12-04T12:58:21.517Z,4.53
2022-12-04T13:01:02.719Z,4.51
2022-12-04T13:03:41.281Z,4.59
2022-12-04T13:06:19.393Z,4.60
2022-12-04T13:09:16.822Z,4.59
2022-12-04T13:11:47.552Z,4.58
2022-12-04T13:14:15.000Z,4.43
2022-12-04T13:16:48.924Z,4.44
2022-12-04T13:19:20.023Z,4.45
2022-12-04T13:22:08.833Z,4.40
2022-12-04T13:24:43.511Z,4.34
2022-12-04T13:27:35.480Z,4.23
2022-12-04T13:30:24.192Z,4.23
2022-12-04T13:33:22.707Z,4.26
2022-12-04T13:36:03.887Z,4.17
2022-12-04T13:39:16.520Z,4.04
2022-12-04T13:41:44.310Z,4.17
2022-12-04T13:44:19.685Z,4.16
2022-12-04T13:46:59.013Z,3.98
2022-12-04T13:49:32.085Z,4.03
2022-12-04T13:52:02.450Z,4.17
2022-12-04T13:54:33.721Z,4.13
2022-12-04T13:57:26.371Z,4.13
2022-12-04T14:00:33.739Z,4.15
2022-12-04T14:03:06.283Z,4.25
2022-12-04T14:05:43.011Z,4.28
2022-12-04T14:08:25.822Z,4.21
2022-12-04T14:11:03.092Z,4.23
2022-12-04T14:13:47.891Z,4.23
2022-12-04T14:16:40.229Z,4.31
2022-12-04T14:19:09.169Z,4.32
2022-12-04T14:21:45.253Z,4.26
2022-12-04T14:24:32.027Z,4.25
2022-12-04T14:27:15.073Z,4.24
2022-12-04T14:29:56.785Z,4.25
2022-12-04T14:32:32.011Z,4.22
2022-12-04T14:35:00.355Z,4.26
2022-12-04T14:37:41.181Z,4.24
2022-12-04T14:40:19.987Z,4.26
2022-12-04T14:42:49.361Z,4.13
2022-12-04T14:45:40.228Z,4.12
2022-12-04T14:48:35.561Z,4.08
2022-12-04T14:51:20.755Z,4.01
2022-12-04T14:54:00.786Z,4.06
2022-12-04T14:56:49.897Z,3.96
2022-12-04T14:59:22.849Z,3.94
2022-12-04T15:01:53.937Z,3.99
2022-12-04T15:04:33.770Z,4.00
2022-12-04T15:07:03.193Z,3.90
2022-12-04T15:09:49.155Z,3.95
2022-12-04T15:12:35.002Z,4.06
2022-12-04T15:15:27.836Z,3.98
2022-12-04T15:18:12.298Z,3.91
2022-12-04T15:21:01.067Z,3.86
2022-12-04T15:23:37.712Z,3.82
2022-12-04T15:26:11.176Z,3.95
2022-12-04T15:28:45.870Z,4.07
2022-12-04T15:31:22.780Z,4.03
2022-12-04T15:33:55.780Z,4.04
2022-12-04T15:36:51.055Z,4.07
2022-12-04T15:39:25.825Z,3.91
2022-12-04T15:42:06.727Z,3.96
2022-12-04T15:44:35.947Z,3.84
2022-12-04T15:47:17.850Z,3.88
2022-12-04T15:49:45.711Z,3.95
2022-12-04T15:52:17.260Z,3.97
2022-12-04T15:54:56.923Z,3.90
2022-12-04T15:57:40.230Z,3.82
2022-12-04T16:00:24.300Z,3.90
2022-12-04T16:02:52.382Z,3.80
2022-12-04T16:05:22.850Z,3.88
2022-12-04T16:07:56.456Z,3.80
2022-12-04T16:10:36.233Z,3.77
2022-12-04T16:13:05.667Z,3.73
2022-12-04T16:15:42.623Z,3.75
2022-12-04T16:18:13.619Z,3.75
2022-12-04T16:20:41.740Z,3.75
2022-12-04T16:23:09.961Z,3.82
2022-12-04T16:25:37.311Z,3.68
2022-12-04T16:28:05.129Z,3.75
2022-12-04T16:30:36.275Z,3.79
2022-12-04T16:33:04.089Z,3.80
2022-12-04T16:35:31.971Z,3.68
2022-12-04T16:37:59.444Z,3.72
2022-12-04T16:40:26.866Z,3.68
2022-12-04T16:42:54.596Z,3.64
2022-12-04T16:45:30.868Z,3.78
2022-12-04T16:47:58.812Z,3.81
2022-12-04T16:50:27.417Z,3.71
2022-12-04T16:52:54.884Z,3.66
2022-12-04T16:55:29.570Z,3.77
2022-12-04T16:57:57.000Z,3.85
2022-12-04T17:00:24.886Z,3.82
2022-12-04T17:02:52.458Z,3.82
2022-12-04T17:05:31.891Z,3.82
2022-12-04T17:08:00.885Z,3.80
2022-12-04T17:10:30.300Z,3.73
2022-12-04T17:12:57.847Z,3.67
2022-12-04T17:15:25.678Z,3.67
2022-12-04T17:17:53.180Z,3.66
2022-12-04T17:20:21.582Z,3.76
2022-12-04T17:22:49.678Z,3.76
2022-12-04T17:25:18.525Z,3.83
2022-12-04T17:27:46.292Z,3.72
2022-12-04T17:30:15.188Z,3.78
2022-12-04T17:32:42.876Z,3.79
2022-12-04T17:35:12.438Z,3.74
2022-12-04T17:37:40.388Z,3.75
2022-12-04T17:40:10.708Z,3.77
2022-12-04T17:42:38.240Z,3.73
2022-12-04T17:45:07.360Z,3.70
2022-12-04T17:47:36.078Z,3.74
2022-12-04T17:50:05.647Z,3.83
2022-12-04T17:52:33.645Z,3.84
2022-12-04T17:55:01.108Z,3.77
2022-12-04T17:57:28.676Z,3.67
2022-12-04T17:59:56.461Z,3.77
2022-12-04T18:02:23.943Z,3.88
2022-12-04T18:04:55.708Z,3.78
2022-12-04T18:07:23.433Z,3.79
2022-12-04T18:09:50.926Z,3.84
2022-12-04T18:12:18.938Z,3.85
2022-12-04T18:14:46.555Z,3.86
2022-12-04T18:17:13.988Z,3.84
2022-12-04T18:19:41.835Z,3.89
2022-12-04T18:22:09.497Z,3.87
2022-12-04T18:24:37.375Z,3.93
2022-12-04T18:27:05.854Z,3.74
2022-12-04T18:29:33.484Z,3.87
2022-12-04T18:32:01.264Z,3.83
2022-12-04T18:34:29.201Z,3.86
2022-12-04T18:36:56.873Z,3.79
2022-12-04T18:39:25.753Z,3.80
2022-12-04T18:41:57.281Z,3.93
2022-12-04T18:44:26.265Z,3.91
2022-12-04T18:46:54.055Z,3.90
2022-12-04T18:49:21.489Z,3.91
2022-12-04T18:51:50.220Z,3.85
2022-12-04T18:54:19.361Z,3.92
2022-12-04T18:56:46.933Z,3.87
2022-12-04T18:59:20.494Z,3.90
2022-12-04T19:01:50.499Z,3.93
2022-12-04T19:04:20.476Z,3.94
2022-12-04T19:06:56.420Z,3.85
2022-12-04T19:12:16.388Z,3.94
2022-12-04T19:14:44.038Z,3.96
2022-12-04T19:17:11.949Z,3.83
2022-12-04T19:19:39.780Z,3.91
2022-12-04T19:22:07.311Z,3.85
2022-12-04T19:24:34.714Z,3.78
2022-12-04T19:27:10.272Z,3.81
2022-12-04T19:29:42.857Z,3.86
2022-12-04T19:32:11.891Z,3.99
2022-12-04T19:34:39.509Z,3.90
2022-12-04T19:37:07.821Z,3.76
2022-12-04T19:39:35.919Z,3.82
2022-12-04T19:42:03.341Z,3.80
2022-12-04T19:47:19.343Z,4.00
2022-12-04T19:49:46.946Z,3.76
2022-12-04T19:52:14.778Z,3.77
2022-12-04T19:54:42.714Z,3.79
2022-12-04T19:57:10.460Z,3.72
2022-12-04T19:59:41.718Z,3.73
2022-12-04T20:02:11.959Z,3.86
2022-12-04T20:04:40.242Z,3.83
2022-12-04T20:07:07.660Z,3.85
2022-12-04T20:09:35.197Z,3.89
2022-12-04T20:12:03.421Z,3.88
2022-12-04T20:14:31.012Z,3.88
2022-12-04T20:16:59.884Z,3.85
2022-12-04T20:19:27.662Z,4.01
2022-12-04T20:21:59.320Z,4.04
2022-12-04T20:24:27.810Z,3.93
2022-12-04T20:26:55.802Z,3.97
2022-12-04T20:29:24.727Z,4.07
2022-12-04T20:31:52.124Z,3.93
2022-12-04T20:34:20.069Z,4.03
2022-12-04T20:36:48.833Z,4.00
2022-12-04T20:39:18.199Z,4.03
2022-12-04T20:41:46.686Z,3.85
2022-12-04T20:44:16.773Z,3.89
2022-12-04T20:46:44.771Z,3.97
2022-12-04T20:49:20.791Z,3.96
2022-12-04T20:51:49.448Z,3.84
2022-12-04T20:54:19.680Z,4.04
2022-12-04T20:56:49.167Z,3.88
2022-12-04T20:59:18.854Z,3.95
2022-12-04T21:01:47.517Z,3.85
2022-12-04T21:04:18.092Z,3.80
2022-12-04T21:06:47.271Z,3.86
2022-12-04T21:09:17.740Z,3.82
2022-12-04T21:11:55.725Z,3.79
2022-12-04T21:14:44.860Z,3.71
2022-12-04T21:17:19.164Z,3.72
2022-12-04T21:19:50.647Z,3.67
2022-12-04T21:22:19.276Z,3.61
2022-12-04T21:24:47.252Z,3.53
2022-12-04T21:27:20.643Z,3.59
2022-12-04T21:29:49.419Z,3.46
2022-12-04T21:32:18.867Z,3.47
2022-12-04T21:34:46.302Z,3.37
2022-12-04T21:37:14.065Z,3.43
2022-12-04T21:39:43.242Z,3.36
2022-12-04T21:42:29.689Z,3.38
2022-12-04T21:45:02.227Z,3.41
2022-12-04T21:47:30.694Z,3.46
2022-12-04T21:49:59.052Z,3.43
2022-12-04T21:52:26.701Z,3.45
2022-12-04T21:54:55.042Z,3.43
2022-12-04T21:57:23.090Z,3.51
2022-12-04T21:59:53.720Z,3.43
2022-12-04T22:02:23.062Z,3.42
2022-12-04T22:04:50.921Z,3.46
2022-12-04T22:07:18.415Z,3.46
2022-12-04T22:09:45.956Z,3.44
2022-12-04T22:15:01.250Z,3.48
2022-12-04T22:17:29.977Z,3.52
2022-12-04T22:19:57.638Z,3.57
2022-12-04T22:22:25.262Z,3.55
2022-12-04T22:24:52.923Z,3.62
2022-12-04T22:27:20.394Z,3.48
2022-12-04T22:29:50.888Z,3.44
2022-12-04T22:32:20.262Z,3.49
2022-12-04T22:34:49.396Z,3.61
2022-12-04T22:37:16.862Z,3.60
2022-12-04T22:39:44.711Z,3.61
2022-12-04T22:42:12.102Z,3.55
2022-12-04T22:44:39.497Z,3.52
2022-12-04T22:47:07.338Z,3.63
2022-12-04T22:49:34.758Z,3.60
2022-12-04T22:52:02.314Z,3.57
2022-12-04T22:54:30.042Z,3.75
2022-12-04T22:56:57.514Z,3.60
2022-12-04T22:59:24.920Z,3.67
2022-12-04T23:01:52.630Z,3.70
2022-12-04T23:04:20.037Z,3.62
2022-12-04T23:06:47.407Z,3.63
2022-12-04T23:09:17.122Z,3.63
2022-12-04T23:11:44.515Z,3.67
2022-12-04T23:14:15.174Z,3.61
2022-12-04T23:16:43.303Z,3.74
2022-12-04T23:19:13.599Z,3.55
2022-12-04T23:21:41.778Z,3.58
2022-12-04T23:24:11.327Z,3.53
2022-12-04T23:26:42.531Z,3.42
2022-12-04T23:29:29.631Z,3.46
2022-12-04T23:31:57.688Z,3.40
2022-12-04T23:34:25.361Z,3.51
2022-12-04T23:36:52.688Z,3.47
2022-12-04T23:39:20.017Z,3.49
2022-12-04T23:41:47.751Z,3.51
2022-12-04T23:44:14.974Z,3.66
2022-12-04T23:46:42.361Z,3.62
2022-12-04T23:49:10.888Z,3.57
2022-12-04T23:51:39.138Z,3.67
2022-12-04T23:54:06.408Z,3.79
2022-12-04T23:56:34.158Z,3.74
2022-12-04T23:59:01.463Z,3.70
